Time;durP1;ratioP1;P1;durP2;ratioP2;P2;SDS_P1;SDS_P2;PMS_P1;PMS_P2;Temp;Humidity;BMP_temperature;BMP_pressure;BME280_temperature;BME280_humidity;BME280_pressure;Samples;Min_cycle;Max_cycle;Signal;HPM_P1;HPM_P2
2023/07/18 00:01:59;;;;;;;15.77;12.25;;;691.90;2432.00;;;;;;5097606;28;20110;-78
2023/07/18 00:04:27;;;;;;;12.90;11.60;;;691.90;2432.00;;;;;;5096922;28;20031;-79
2023/07/18 00:06:54;;;;;;;13.65;12.20;;;691.90;2432.00;;;;;;5097891;28;20074;-77
2023/07/18 00:09:21;;;;;;;15.77;12.23;;;691.80;2432.00;;;;;;5096142;28;20056;-77
2023/07/18 00:11:47;;;;;;;17.17;13.73;;;691.60;2432.00;;;;;;5096629;28;20020;-77
2023/07/18 00:14:14;;;;;;;19.50;12.82;;;691.50;2432.00;;;;;;5097692;28;20476;-78
2023/07/18 00:16:41;;;;;;;15.38;13.82;;;691.60;2432.00;;;;;;5103408;28;20039;-77
2023/07/18 00:19:09;;;;;;;14.93;12.75;;;691.30;2432.00;;;;;;5101392;28;20127;-79
2023/07/18 00:21:36;;;;;;;19.40;13.25;;;691.30;2432.00;;;;;;5085044;28;20059;-79
2023/07/18 00:24:02;;;;;;;14.60;12.55;;;691.50;2432.00;;;;;;5083545;28;20028;-81
2023/07/18 00:26:28;;;;;;;14.65;11.95;;;691.50;2432.00;;;;;;5077088;28;20020;-80
2023/07/18 00:28:54;;;;;;;13.65;12.27;;;691.50;2432.00;;;;;;5076718;28;20035;-80
2023/07/18 00:31:21;;;;;;;12.45;11.18;;;691.40;2432.00;;;;;;5075953;28;20101;-79
2023/07/18 00:33:47;;;;;;;14.43;11.82;;;691.30;2432.00;;;;;;5077076;28;20017;-78
2023/07/18 00:36:13;;;;;;;15.68;12.27;;;691.30;2432.00;;;;;;5076850;28;20377;-80
2023/07/18 00:38:39;;;;;;;13.98;12.52;;;691.30;2432.00;;;;;;5075797;28;20453;-80
2023/07/18 00:41:05;;;;;;;14.18;11.75;;;691.20;2432.00;;;;;;5076797;28;20027;-80
2023/07/18 00:43:33;;;;;;;14.75;12.98;;;666.50;2432.00;;;;;;5075997;28;20020;-80
2023/07/18 00:45:59;;;;;;;14.23;12.25;;;666.30;2432.00;;;;;;5075341;28;20024;-79
2023/07/18 00:48:27;;;;;;;14.35;12.75;;;666.50;2432.00;;;;;;5075877;28;20060;-79
2023/07/18 00:50:53;;;;;;;14.25;12.60;;;666.50;2432.00;;;;;;5075916;28;20035;-80
2023/07/18 00:53:22;;;;;;;14.85;13.27;;;666.50;2432.00;;;;;;5075737;28;20062;-78
2023/07/18 00:55:49;;;;;;;18.63;14.05;;;666.20;2432.00;;;;;;5074542;28;20149;-80
2023/07/18 00:58:16;;;;;;;18.00;12.70;;;666.30;2432.00;;;;;;5073936;28;20060;-78
2023/07/18 01:00:42;;;;;;;13.60;12.30;;;666.50;2432.00;;;;;;5074990;28;20024;-80
2023/07/18 01:03:08;;;;;;;15.00;13.32;;;666.30;2432.00;;;;;;5075750;28;20078;-80
2023/07/18 01:05:34;;;;;;;17.52;13.10;;;666.30;2406.40;;;;;;5076124;28;20024;-77
2023/07/18 01:08:04;;;;;;;13.82;12.38;;;666.30;2432.00;;;;;;5076649;28;20028;-79
2023/07/18 01:10:29;;;;;;;14.45;12.35;;;666.30;2432.00;;;;;;5073767;28;20098;-79
2023/07/18 01:13:01;;;;;;;14.63;13.13;;;666.50;2406.40;;;;;;5076427;28;20032;-77
2023/07/18 01:15:32;;;;;;;15.52;12.75;;;666.30;2355.20;;;;;;5074561;28;20025;-79
2023/07/18 01:17:58;;;;;;;14.10;12.07;;;666.20;2406.40;;;;;;5074999;28;20025;-78
2023/07/18 01:20:29;;;;;;;16.77;12.52;;;665.60;2432.00;;;;;;5074344;28;20127;-78
2023/07/18 01:22:58;;;;;;;12.98;11.75;;;666.10;2432.00;;;;;;5074186;28;20461;-78
2023/07/18 01:25:24;;;;;;;14.90;12.00;;;666.10;2432.00;;;;;;5084490;28;20032;-78
2023/07/18 01:27:52;;;;;;;14.52;13.10;;;666.00;2432.00;;;;;;5094098;28;20039;-78
2023/07/18 01:30:20;;;;;;;15.00;11.88;;;666.00;2432.00;;;;;;5094281;28;20024;-79
2023/07/18 01:32:49;;;;;;;14.82;12.10;;;666.00;2432.00;;;;;;5094240;28;20020;-78
2023/07/18 01:35:17;;;;;;;14.93;12.75;;;665.90;2432.00;;;;;;5095613;28;20020;-80
2023/07/18 01:37:46;;;;;;;14.18;12.45;;;665.80;2432.00;;;;;;5098543;28;20009;-76
2023/07/18 01:40:15;;;;;;;13.18;11.70;;;665.80;2432.00;;;;;;5114309;28;20020;-76
2023/07/18 01:42:45;;;;;;;16.55;12.23;;;665.80;2432.00;;;;;;5102985;28;20038;-79
2023/07/18 01:45:11;;;;;;;14.50;13.00;;;665.80;2432.00;;;;;;5093922;28;20028;-78
2023/07/18 01:47:38;;;;;;;15.50;12.88;;;665.70;2432.00;;;;;;5094441;28;20140;-80
2023/07/18 01:50:05;;;;;;;14.80;13.30;;;665.70;2432.00;;;;;;5093897;28;20122;-79
2023/07/18 01:52:32;;;;;;;15.07;12.57;;;665.60;2432.00;;;;;;5094225;28;20024;-79
2023/07/18 01:55:00;;;;;;;15.48;12.98;;;665.60;2432.00;;;;;;5093804;28;20028;-81
2023/07/18 01:57:50;;;;;;;14.90;12.90;;;665.70;2432.00;;;;;;5094206;28;20027;-77
2023/07/18 02:00:19;;;;;;;16.30;13.23;;;665.70;2432.00;;;;;;5092636;28;20063;-80
2023/07/18 02:02:49;;;;;;;16.67;12.98;;;665.60;2432.00;;;;;;5093953;28;20028;-80
2023/07/18 02:05:17;;;;;;;17.25;13.40;;;665.70;2432.00;;;;;;5094805;28;20077;-79
2023/07/18 02:07:43;;;;;;;15.43;12.30;;;665.70;2432.00;;;;;;5092935;28;20028;-79
2023/07/18 02:10:09;;;;;;;15.32;13.77;;;665.70;2432.00;;;;;;5093230;28;20556;-80
2023/07/18 02:12:36;;;;;;;14.57;12.85;;;640.70;2432.00;;;;;;5093377;28;20073;-79
2023/07/18 02:15:05;;;;;;;17.98;12.88;;;665.60;2432.00;;;;;;5093608;28;20077;-80
2023/07/18 02:17:32;;;;;;;16.33;12.90;;;640.90;2432.00;;;;;;5094871;28;20109;-78
2023/07/18 02:19:58;;;;;;;17.42;13.60;;;640.80;2432.00;;;;;;5092903;28;20028;-80
2023/07/18 02:22:24;;;;;;;18.33;13.82;;;640.70;2432.00;;;;;;5093489;28;20028;-80
2023/07/18 02:24:49;;;;;;;17.42;14.00;;;640.70;2432.00;;;;;;5093468;28;20032;-80
2023/07/18 02:27:15;;;;;;;15.68;14.07;;;640.60;2432.00;;;;;;5094472;28;20031;-79
2023/07/18 02:29:41;;;;;;;15.75;12.90;;;640.50;2432.00;;;;;;5094677;28;20034;-80
2023/07/18 02:32:08;;;;;;;14.63;12.70;;;640.70;2432.00;;;;;;5093430;28;20028;-80
2023/07/18 02:34:34;;;;;;;16.70;12.55;;;640.70;2432.00;;;;;;5093134;28;20379;-79
2023/07/18 02:36:59;;;;;;;17.65;13.13;;;640.70;2432.00;;;;;;5094083;28;20024;-80
2023/07/18 02:39:25;;;;;;;14.77;13.10;;;640.80;2432.00;;;;;;5093182;28;20488;-79
2023/07/18 02:41:51;;;;;;;17.83;13.30;;;640.70;2432.00;;;;;;5093866;28;20103;-81
2023/07/18 02:44:17;;;;;;;14.63;12.70;;;640.70;2432.00;;;;;;5093116;28;20024;-79
2023/07/18 02:46:43;;;;;;;14.18;12.77;;;640.60;2432.00;;;;;;5093024;28;20447;-80
2023/07/18 02:49:09;;;;;;;13.80;12.23;;;640.50;2432.00;;;;;;5092722;28;20123;-79
2023/07/18 02:51:35;;;;;;;14.75;12.07;;;640.60;2432.00;;;;;;5094154;28;20059;-78
2023/07/18 02:54:01;;;;;;;13.43;12.05;;;640.50;2432.00;;;;;;5092046;28;20392;-82
2023/07/18 02:56:27;;;;;;;14.18;12.52;;;640.50;2432.00;;;;;;5088125;28;20039;-81
2023/07/18 02:58:53;;;;;;;14.68;13.02;;;640.40;2432.00;;;;;;5072849;28;20037;-79
2023/07/18 03:01:19;;;;;;;15.15;12.57;;;640.40;2432.00;;;;;;5072252;28;20024;-79
2023/07/18 03:03:45;;;;;;;20.05;13.18;;;640.50;2432.00;;;;;;5072662;28;20056;-79
2023/07/18 03:06:11;;;;;;;13.85;12.23;;;640.50;2432.00;;;;;;5072430;28;20078;-79
2023/07/18 03:08:37;;;;;;;17.65;13.52;;;640.60;2432.00;;;;;;5072213;28;20324;-79
2023/07/18 03:11:06;;;;;;;17.02;12.85;;;640.50;2432.00;;;;;;5071989;28;20056;-80
2023/07/18 03:13:32;;;;;;;16.00;12.38;;;640.40;2432.00;;;;;;5072453;28;20046;-80
2023/07/18 03:15:58;;;;;;;16.55;13.43;;;640.40;2432.00;;;;;;5072347;28;20119;-80
2023/07/18 03:18:24;;;;;;;15.75;12.52;;;640.50;2432.00;;;;;;5072387;28;20384;-80
2023/07/18 03:20:50;;;;;;;13.65;12.25;;;640.40;2432.00;;;;;;5073386;28;20032;-80
2023/07/18 03:23:16;;;;;;;14.82;13.18;;;640.40;2432.00;;;;;;5072303;28;20036;-81
2023/07/18 03:25:41;;;;;;;13.80;12.18;;;640.50;2432.00;;;;;;5073632;28;20048;-79
2023/07/18 03:28:08;;;;;;;15.60;13.48;;;640.40;2432.00;;;;;;5073624;28;20024;-77
2023/07/18 03:30:34;;;;;;;14.82;13.18;;;640.40;2432.00;;;;;;5073133;28;20021;-80
2023/07/18 03:33:00;;;;;;;15.52;13.90;;;640.20;2432.00;;;;;;5072305;28;20107;-81
2023/07/18 03:35:26;;;;;;;14.90;13.32;;;640.30;2432.00;;;;;;5072451;28;20051;-78
2023/07/18 03:37:52;;;;;;;17.00;13.10;;;640.40;2432.00;;;;;;5073264;28;20020;-79
2023/07/18 03:40:18;;;;;;;15.68;14.02;;;640.30;2432.00;;;;;;5072547;28;20025;-80
2023/07/18 03:42:44;;;;;;;14.85;13.25;;;640.40;2432.00;;;;;;5073818;28;20476;-80
2023/07/18 03:45:13;;;;;;;16.05;12.90;;;640.50;2432.00;;;;;;5071880;28;20032;-79
2023/07/18 03:47:39;;;;;;;15.60;13.57;;;640.60;2432.00;;;;;;5073472;28;20031;-79
2023/07/18 03:50:07;;;;;;;14.20;12.70;;;640.50;2432.00;;;;;;5072116;28;20477;-79
2023/07/18 03:52:33;;;;;;;14.27;12.68;;;640.50;2432.00;;;;;;5071838;28;20110;-79
2023/07/18 03:54:59;;;;;;;14.98;13.27;;;640.50;2432.00;;;;;;5071961;28;20074;-80
2023/07/18 03:57:27;;;;;;;14.00;12.60;;;640.60;2432.00;;;;;;5071551;28;20029;-80
2023/07/18 03:59:52;;;;;;;14.38;12.82;;;640.70;2432.00;;;;;;5073380;28;20502;-80
2023/07/18 04:02:18;;;;;;;18.92;13.50;;;640.60;2432.00;;;;;;5072016;28;20033;-79
2023/07/18 04:04:44;;;;;;;16.52;13.35;;;640.70;2432.00;;;;;;5071690;28;20411;-79
2023/07/18 04:07:10;;;;;;;17.45;13.75;;;640.90;2432.00;;;;;;5072975;28;20075;-79
2023/07/18 04:09:35;;;;;;;17.73;14.00;;;640.70;2432.00;;;;;;5071525;28;20139;-80
2023/07/18 04:12:01;;;;;;;22.30;14.38;;;640.70;2432.00;;;;;;5072932;28;20070;-79
2023/07/18 04:14:27;;;;;;;14.98;13.45;;;640.70;2432.00;;;;;;5085311;28;20033;-81
2023/07/18 04:16:53;;;;;;;18.45;13.55;;;640.90;2252.80;;;;;;5072718;28;20039;-80
2023/07/18 04:19:19;;;;;;;15.30;13.43;;;640.90;2304.00;;;;;;5070114;28;20526;-79
2023/07/18 04:21:45;;;;;;;14.98;13.30;;;640.60;2432.00;;;;;;5071438;28;20024;-79
2023/07/18 04:24:11;;;;;;;15.63;13.10;;;640.70;2432.00;;;;;;5071784;28;20039;-80
2023/07/18 04:26:37;;;;;;;16.00;14.23;;;640.60;2432.00;;;;;;5071373;28;20487;-79
2023/07/18 04:29:06;;;;;;;18.88;13.93;;;640.70;2406.40;;;;;;5073104;28;20033;-81
2023/07/18 04:31:32;;;;;;;20.40;13.80;;;640.70;2432.00;;;;;;5071709;28;20066;-79
2023/07/18 04:33:59;;;;;;;16.67;13.98;;;640.70;2252.80;;;;;;5075369;28;20032;-79
2023/07/18 04:36:25;;;;;;;15.68;13.32;;;640.70;2380.80;;;;;;5076259;28;20036;-79
2023/07/18 04:38:51;;;;;;;14.68;13.27;;;665.70;2406.40;;;;;;5075127;28;20117;-79
2023/07/18 04:41:17;;;;;;;16.00;13.00;;;640.70;2432.00;;;;;;5076064;28;20024;-80
2023/07/18 04:43:42;;;;;;;17.88;14.05;;;640.90;2432.00;;;;;;5076397;28;20028;-79
2023/07/18 04:46:10;;;;;;;17.73;13.85;;;640.90;2432.00;;;;;;5075154;28;20056;-79
2023/07/18 04:48:36;;;;;;;16.88;13.40;;;665.60;2380.80;;;;;;5074691;28;20054;-79
2023/07/18 04:51:03;;;;;;;17.52;14.07;;;665.70;2329.60;;;;;;5075956;28;20029;-80
2023/07/18 04:53:30;;;;;;;14.32;12.35;;;665.70;2201.60;;;;;;5075057;28;20012;-80
2023/07/18 04:55:56;;;;;;;15.40;13.57;;;665.70;2073.60;;;;;;5075073;28;20040;-79
2023/07/18 04:58:24;;;;;;;19.42;13.00;;;665.90;2099.20;;;;;;5074752;28;20036;-78
2023/07/18 05:00:50;;;;;;;17.92;14.35;;;665.90;2073.60;;;;;;5075232;28;20021;-80
2023/07/18 05:03:15;;;;;;;16.23;13.75;;;666.00;2176.00;;;;;;5091709;28;20032;-78
2023/07/18 05:05:41;;;;;;;22.10;14.30;;;665.90;1971.20;;;;;;5095051;28;20020;-79
2023/07/18 05:08:07;;;;;;;19.05;13.00;;;666.00;1715.20;;;;;;5094339;28;20106;-79
2023/07/18 05:10:33;;;;;;;17.88;13.77;;;666.00;1715.20;;;;;;5098399;28;20070;-77
2023/07/18 05:12:59;;;;;;;13.30;11.93;;;666.00;1740.80;;;;;;5117874;28;20012;-79
2023/07/18 05:15:24;;;;;;;21.88;14.38;;;666.20;1689.60;;;;;;5098518;28;20483;-82
2023/07/18 05:17:50;;;;;;;17.23;14.65;;;666.20;1689.60;;;;;;5096306;28;20039;-79
2023/07/18 05:20:16;;;;;;;18.02;12.90;;;666.20;1817.60;;;;;;5094734;28;20021;-82
2023/07/18 05:22:45;;;;;;;17.70;14.60;;;666.30;1843.20;;;;;;5094349;28;20418;-80
2023/07/18 05:25:13;;;;;;;20.95;14.90;;;666.50;1843.20;;;;;;5094632;28;20039;-80
2023/07/18 05:27:40;;;;;;;26.55;14.63;;;666.50;1792.00;;;;;;5093365;28;20782;-80
2023/07/18 05:30:11;;;;;;;19.17;13.77;;;691.20;1792.00;;;;;;5091174;28;20036;-80
2023/07/18 05:32:37;;;;;;;22.15;15.77;;;666.50;1766.40;;;;;;5094250;28;20024;-81
2023/07/18 05:35:03;;;;;;;21.65;14.32;;;666.50;1843.20;;;;;;5093825;28;20101;-80
2023/07/18 05:37:30;;;;;;;18.83;13.55;;;666.50;1817.60;;;;;;5093894;28;20031;-81
2023/07/18 05:39:56;;;;;;;21.20;14.88;;;691.30;1792.00;;;;;;5095753;28;20038;-78
2023/07/18 05:42:22;;;;;;;26.90;15.40;;;691.40;1715.20;;;;;;5094079;28;20020;-81
2023/07/18 05:44:48;;;;;;;18.73;13.95;;;691.40;1792.00;;;;;;5093858;28;20475;-79
2023/07/18 05:47:15;;;;;;;22.02;14.90;;;691.50;1792.00;;;;;;5094100;28;20462;-80
2023/07/18 05:49:41;;;;;;;23.02;14.95;;;691.60;1740.80;;;;;;5093541;28;20506;-80
2023/07/18 05:52:07;;;;;;;16.83;13.93;;;691.50;1612.80;;;;;;5094018;28;20024;-78
2023/07/18 05:54:32;;;;;;;22.05;13.73;;;691.50;1689.60;;;;;;5095210;28;20059;-77
2023/07/18 05:56:59;;;;;;;16.90;13.88;;;691.60;1612.80;;;;;;5093620;28;20225;-78
2023/07/18 05:59:26;;;;;;;20.63;13.48;;;691.70;1664.00;;;;;;5093755;28;20028;-78
2023/07/18 06:01:52;;;;;;;20.52;14.48;;;691.80;1689.60;;;;;;5093802;28;20024;-78
2023/07/18 06:04:18;;;;;;;18.52;13.43;;;691.90;1715.20;;;;;;5093297;28;20024;-77
2023/07/18 06:06:44;;;;;;;20.83;14.02;;;692.10;1766.40;;;;;;5093292;28;20028;-78
2023/07/18 06:09:11;;;;;;;17.30;13.13;;;716.90;1510.40;;;;;;5094232;28;20129;-77
2023/07/18 06:11:37;;;;;;;20.80;12.93;;;717.10;1280.00;;;;;;5093411;28;20028;-77
2023/07/18 06:14:05;;;;;;;16.52;13.32;;;717.20;1280.00;;;;;;5093529;28;20353;-78
2023/07/18 06:16:31;;;;;;;17.92;13.80;;;717.50;1356.80;;;;;;5093595;28;20539;-78
2023/07/18 06:18:57;;;;;;;17.05;13.73;;;717.30;1587.20;;;;;;5093147;28;20028;-78
2023/07/18 06:21:26;;;;;;;16.48;13.73;;;717.60;1587.20;;;;;;5093652;28;20032;-78
2023/07/18 06:23:53;;;;;;;14.73;12.57;;;717.70;1715.20;;;;;;5093425;28;20028;-78
2023/07/18 06:26:19;;;;;;;17.13;13.18;;;742.40;1740.80;;;;;;5093149;28;20584;-79
2023/07/18 06:28:45;;;;;;;15.63;12.82;;;742.50;1868.80;;;;;;5093449;28;20036;-78
2023/07/18 06:31:11;;;;;;;18.13;12.93;;;742.60;1305.60;;;;;;5093431;28;20096;-78
2023/07/18 06:33:38;;;;;;;18.35;13.80;;;742.80;2022.40;;;;;;5093076;28;20024;-78
2023/07/18 06:36:04;;;;;;;19.70;13.63;;;742.90;1894.40;;;;;;5094826;28;20028;-79
2023/07/18 06:38:30;;;;;;;18.88;13.43;;;742.90;1792.00;;;;;;5092862;28;20028;-79
2023/07/18 06:40:56;;;;;;;17.48;13.48;;;742.80;1843.20;;;;;;5093133;28;20028;-78
2023/07/18 06:43:22;;;;;;;17.35;12.75;;;742.90;1894.40;;;;;;5093130;28;20020;-79
2023/07/18 06:45:48;;;;;;;16.65;14.70;;;742.90;1996.80;;;;;;5092762;28;20047;-78
2023/07/18 06:48:14;;;;;;;16.27;14.45;;;742.90;2124.80;;;;;;5093043;28;20062;-78
2023/07/18 06:50:48;;;;;;;16.52;14.10;;;743.10;2022.40;;;;;;5093210;28;20043;-81
2023/07/18 06:53:19;;;;;;;16.88;14.27;;;743.30;2022.40;;;;;;5094018;28;20487;-80
2023/07/18 06:55:46;;;;;;;16.15;13.20;;;768.00;2150.40;;;;;;5093547;28;20020;-80
2023/07/18 06:58:12;;;;;;;17.13;14.43;;;768.10;1971.20;;;;;;5094350;28;20130;-80
2023/07/18 07:00:39;;;;;;;16.67;14.75;;;768.30;1843.20;;;;;;5092635;28;20020;-80
2023/07/18 07:03:07;;;;;;;17.30;14.18;;;768.50;1945.60;;;;;;5094085;28;20055;-80
2023/07/18 07:05:41;;;;;;;18.73;15.32;;;768.60;1433.60;;;;;;5094218;28;20419;-80
2023/07/18 07:08:08;;;;;;;15.90;14.23;;;768.90;2124.80;;;;;;5092441;28;20032;-80
2023/07/18 07:10:39;;;;;;;17.33;14.65;;;768.70;1766.40;;;;;;5093522;28;20131;-80
2023/07/18 07:13:04;;;;;;;18.45;14.65;;;768.90;1792.00;;;;;;5085527;28;20476;-80
2023/07/18 07:15:32;;;;;;;18.45;14.13;;;793.60;1792.00;;;;;;5073696;28;20025;-82
2023/07/18 07:17:58;;;;;;;17.85;15.07;;;768.60;1536.00;;;;;;5074083;28;20081;-81
2023/07/18 07:20:25;;;;;;;27.10;15.82;;;768.60;1459.20;;;;;;5072222;28;20036;-79
2023/07/18 07:22:52;;;;;;;16.90;14.13;;;768.60;1510.40;;;;;;5072286;28;20029;-80
2023/07/18 07:25:19;;;;;;;15.93;14.38;;;768.90;1484.80;;;;;;5072610;28;20035;-80
2023/07/18 07:27:46;;;;;;;19.52;15.90;;;768.90;1638.40;;;;;;5072181;28;20554;-81
2023/07/18 07:30:15;;;;;;;17.50;15.30;;;793.70;1638.40;;;;;;5087362;28;20039;-84
2023/07/18 07:32:45;;;;;;;19.60;15.25;;;793.70;1868.80;;;;;;5083900;28;20123;-82
2023/07/18 07:35:11;;;;;;;17.67;14.75;;;793.60;1638.40;;;;;;5072538;28;20025;-83
2023/07/18 07:37:40;;;;;;;17.85;15.45;;;793.70;1587.20;;;;;;5073236;28;20131;-82
2023/07/18 07:40:11;;;;;;;15.57;13.60;;;768.90;1664.00;;;;;;5073015;28;20032;-82
2023/07/18 07:42:42;;;;;;;15.23;13.67;;;793.80;1766.40;;;;;;5074123;28;20036;-82
2023/07/18 07:45:08;;;;;;;21.73;14.10;;;793.80;1587.20;;;;;;5091828;28;20296;-83
2023/07/18 07:47:34;;;;;;;14.52;13.07;;;794.00;1459.20;;;;;;5094005;28;20036;-83
2023/07/18 07:50:04;;;;;;;17.50;13.95;;;794.10;1664.00;;;;;;5091751;28;20032;-81
2023/07/18 07:52:30;;;;;;;19.10;12.65;;;794.10;1792.00;;;;;;5092314;28;20020;-81
2023/07/18 07:54:57;;;;;;;18.58;12.23;;;794.20;1664.00;;;;;;5092504;28;20032;-81
2023/07/18 07:57:24;;;;;;;14.25;12.32;;;794.50;1792.00;;;;;;5092007;28;20024;-81
2023/07/18 07:59:51;;;;;;;18.75;13.27;;;819.20;1510.40;;;;;;5094100;28;20082;-81
2023/07/18 08:02:20;;;;;;;12.98;11.55;;;819.30;1766.40;;;;;;5091767;28;20051;-82
2023/07/18 08:04:48;;;;;;;18.40;12.85;;;819.60;1612.80;;;;;;5092534;28;20024;-82
2023/07/18 08:07:14;;;;;;;14.90;12.02;;;819.70;1766.40;;;;;;5094154;28;20383;-82
2023/07/18 08:09:40;;;;;;;17.55;12.88;;;819.60;1868.80;;;;;;5095762;28;20078;-81
2023/07/18 08:12:07;;;;;;;14.90;11.63;;;819.80;1664.00;;;;;;5096370;28;20070;-81
2023/07/18 08:14:34;;;;;;;23.00;12.85;;;819.90;1664.00;;;;;;5110990;28;20011;-79
2023/07/18 08:17:01;;;;;;;15.98;12.82;;;844.90;1459.20;;;;;;5105942;28;20119;-80
2023/07/18 08:19:27;;;;;;;21.33;10.50;;;844.90;1510.40;;;;;;5097404;28;20034;-79
2023/07/18 08:21:53;;;;;;;9.70;5.85;;;845.20;1638.40;;;;;;5097540;28;20099;-80
2023/07/18 08:24:19;;;;;;;14.10;8.23;;;845.20;1664.00;;;;;;5095717;28;20035;-80
2023/07/18 08:26:45;;;;;;;10.40;6.30;;;845.30;1587.20;;;;;;5095982;28;20028;-81
2023/07/18 08:29:11;;;;;;;6.90;5.95;;;845.40;1100.80;;;;;;5095651;28;20085;-80
2023/07/18 08:31:37;;;;;;;5.78;4.90;;;845.30;921.60;;;;;;5096593;28;20032;-78
2023/07/18 08:34:02;;;;;;;7.88;5.60;;;845.20;819.20;;;;;;5095608;28;20028;-79
2023/07/18 08:36:30;;;;;;;8.90;4.90;;;845.40;870.40;;;;;;5095673;28;20479;-79
2023/07/18 08:38:55;;;;;;;9.07;5.65;;;845.60;844.80;;;;;;5095225;28;20024;-80
2023/07/18 08:41:22;;;;;;;11.43;5.55;;;870.50;844.80;;;;;;5095425;28;20035;-77
2023/07/18 08:43:48;;;;;;;10.95;5.95;;;870.50;793.60;;;;;;5095395;28;20028;-80
2023/07/18 08:46:15;;;;;;;7.85;5.47;;;845.60;793.60;;;;;;5095310;28;20351;-80
2023/07/18 08:48:43;;;;;;;7.85;4.70;;;845.70;691.20;;;;;;5095191;28;20024;-78
2023/07/18 08:51:13;;;;;;;7.07;4.95;;;870.50;716.80;;;;;;5095267;28;20471;-77
2023/07/18 08:53:40;;;;;;;7.45;4.60;;;870.60;665.60;;;;;;5095016;28;20024;-77
2023/07/18 08:56:10;;;;;;;6.90;4.40;;;870.50;640.00;;;;;;5095166;28;20053;-78
2023/07/18 08:58:39;;;;;;;7.82;5.25;;;870.50;614.40;;;;;;5094732;28;20852;-78
2023/07/18 09:01:10;;;;;;;5.82;5.00;;;870.50;614.40;;;;;;5095043;28;20046;-78
2023/07/18 09:03:36;;;;;;;9.10;5.40;;;870.60;640.00;;;;;;5095229;28;20024;-78
2023/07/18 09:06:03;;;;;;;9.55;5.28;;;870.50;665.60;;;;;;5094698;28;20085;-78
2023/07/18 09:08:43;;;;;;;9.25;4.85;;;870.70;614.40;;;;;;5095788;28;20519;-78
2023/07/18 09:11:12;;;;;;;10.27;4.78;;;870.70;588.80;;;;;;5096454;28;20313;-78
2023/07/18 09:13:39;;;;;;;11.90;6.57;;;870.90;640.00;;;;;;5091155;28;20092;-78
2023/07/18 09:16:17;;;;;;;10.00;5.00;;;870.90;588.80;;;;;;5112006;28;20028;-78
2023/07/18 09:18:44;;;;;;;12.38;7.03;;;871.00;512.00;;;;;;5111186;28;20460;-78
2023/07/18 09:21:11;;;;;;;7.75;4.70;;;871.30;563.20;;;;;;5111649;28;20479;-78
2023/07/18 09:23:42;;;;;;;7.53;4.93;;;871.10;435.20;;;;;;5112012;28;20484;-77
2023/07/18 09:26:14;;;;;;;6.22;4.68;;;871.10;563.20;;;;;;5111885;28;20024;-78
2023/07/18 09:28:40;;;;;;;8.25;5.00;;;871.20;563.20;;;;;;5111353;28;20040;-78
2023/07/18 09:31:20;;;;;;;6.68;4.93;;;871.30;537.60;;;;;;5111584;28;20024;-78
2023/07/18 09:33:47;;;;;;;6.70;4.35;;;896.10;435.20;;;;;;5112152;28;20028;-78
2023/07/18 09:36:24;;;;;;;10.80;6.88;;;896.10;435.20;;;;;;5097754;28;20023;-78
2023/07/18 09:38:51;;;;;;;8.52;4.40;;;896.50;537.60;;;;;;5112591;28;20032;-79
2023/07/18 09:41:22;;;;;;;10.10;6.32;;;896.30;435.20;;;;;;5096899;28;20048;-78
2023/07/18 09:43:48;;;;;;;10.60;6.47;;;896.60;537.60;;;;;;5095747;28;20468;-78
2023/07/18 09:46:15;;;;;;;8.35;5.20;;;896.60;435.20;;;;;;5111276;28;20256;-78
2023/07/18 09:48:43;;;;;;;6.80;4.93;;;896.80;486.40;;;;;;5095051;28;20075;-79
2023/07/18 09:51:13;;;;;;;11.15;4.70;;;896.80;486.40;;;;;;5110909;28;20027;-79
2023/07/18 09:53:42;;;;;;;4.93;4.05;;;896.80;486.40;;;;;;5096157;28;20055;-79
2023/07/18 09:56:10;;;;;;;7.78;4.85;;;896.90;384.00;;;;;;5110686;28;20111;-79
2023/07/18 09:58:39;;;;;;;6.72;4.70;;;896.90;537.60;;;;;;5111078;28;20024;-79
2023/07/18 10:01:11;;;;;;;9.02;4.55;;;896.90;409.60;;;;;;5094832;28;20020;-78
2023/07/18 10:03:39;;;;;;;5.78;3.80;;;921.70;486.40;;;;;;5094791;28;20096;-78
2023/07/18 10:06:10;;;;;;;6.50;4.18;;;921.60;588.80;;;;;;5110699;28;20031;-80
2023/07/18 10:08:39;;;;;;;11.90;4.38;;;921.60;614.40;;;;;;5111150;28;20409;-78
2023/07/18 10:11:07;;;;;;;5.90;4.65;;;921.70;665.60;;;;;;5094600;28;20189;-79
2023/07/18 10:14:05;;;;;;;6.45;4.10;;;922.10;537.60;;;;;;5110844;28;20082;-79
2023/07/18 10:16:34;;;;;;;9.15;5.35;;;922.00;486.40;;;;;;5110537;28;20082;-80
2023/07/18 10:19:18;;;;;;;8.48;3.90;;;922.00;486.40;;;;;;5113027;28;20063;-80
2023/07/18 10:21:50;;;;;;;6.35;4.03;;;922.10;435.20;;;;;;5095404;28;20026;-78
2023/07/18 10:24:24;;;;;;;5.22;3.95;;;922.20;588.80;;;;;;5110240;28;20368;-78
2023/07/18 10:27:08;;;;;;;6.55;4.85;;;922.20;409.60;;;;;;5094609;28;20498;-79
2023/07/18 10:29:41;;;;;;;9.88;5.05;;;922.30;409.60;;;;;;5094473;28;20028;-78
2023/07/18 10:32:11;;;;;;;10.30;4.22;;;922.50;435.20;;;;;;5094195;28;20035;-78
2023/07/18 10:34:41;;;;;;;7.82;4.45;;;947.30;332.80;;;;;;5110526;28;20059;-78
2023/07/18 10:37:09;;;;;;;6.93;4.65;;;947.50;281.60;;;;;;5110913;28;20059;-79
2023/07/18 10:39:40;;;;;;;7.82;4.55;;;947.70;281.60;;;;;;5111417;28;20529;-79
2023/07/18 10:42:07;;;;;;;6.43;5.03;;;947.60;281.60;;;;;;5111747;28;20082;-78
2023/07/18 10:44:39;;;;;;;7.00;4.30;;;947.50;281.60;;;;;;5110554;28;20120;-80
2023/07/18 10:47:15;;;;;;;7.20;4.45;;;947.60;281.60;;;;;;5110220;28;20023;-81
2023/07/18 10:49:42;;;;;;;7.82;4.50;;;947.50;281.60;;;;;;5110219;28;20043;-80
2023/07/18 10:52:08;;;;;;;6.93;4.03;;;947.50;281.60;;;;;;5094250;28;20031;-81
2023/07/18 10:54:35;;;;;;;5.45;4.25;;;947.60;281.60;;;;;;5110481;28;20047;-80
2023/07/18 10:57:01;;;;;;;7.22;5.05;;;947.60;281.60;;;;;;5094905;28;20020;-80
2023/07/18 10:59:27;;;;;;;6.32;3.63;;;947.70;281.60;;;;;;5109615;28;20028;-79
2023/07/18 11:01:53;;;;;;;9.02;3.80;;;947.60;281.60;;;;;;5109751;28;20077;-80
2023/07/18 11:04:22;;;;;;;8.90;3.85;;;947.70;281.60;;;;;;5109588;28;20035;-79
2023/07/18 11:06:50;;;;;;;6.13;3.63;;;947.70;281.60;;;;;;5122028;27;20016;-79
2023/07/18 11:09:16;;;;;;;7.13;3.80;;;947.90;281.60;;;;;;5103016;28;20143;-80
2023/07/18 11:11:42;;;;;;;5.38;3.88;;;948.00;281.60;;;;;;5093482;28;20030;-79
2023/07/18 11:14:08;;;;;;;8.20;3.92;;;948.10;281.60;;;;;;5109757;28;20111;-80
2023/07/18 11:16:33;;;;;;;6.10;3.90;;;973.10;307.20;;;;;;5109495;28;20544;-80
2023/07/18 11:19:00;;;;;;;7.97;3.75;;;973.20;307.20;;;;;;5109343;28;20032;-81
2023/07/18 11:21:26;;;;;;;5.82;4.20;;;973.20;307.20;;;;;;5094542;28;20020;-79
2023/07/18 11:23:53;;;;;;;5.72;3.50;;;973.20;307.20;;;;;;5110462;28;20036;-79
2023/07/18 11:26:19;;;;;;;5.88;3.88;;;973.10;307.20;;;;;;5110663;28;20085;-82
2023/07/18 11:28:57;;;;;;;5.68;4.05;;;973.20;307.20;;;;;;5094171;28;20043;-81
2023/07/18 11:31:31;;;;;;;5.85;3.97;;;973.20;307.20;;;;;;5109930;28;20029;-81
2023/07/18 11:34:01;;;;;;;5.57;3.88;;;973.30;307.20;;;;;;5109576;28;20135;-81
2023/07/18 11:36:35;;;;;;;6.05;4.22;;;973.20;307.20;;;;;;5109897;28;20020;-80
2023/07/18 11:39:01;;;;;;;7.72;5.05;;;973.40;307.20;;;;;;5110413;28;20028;-79
2023/07/18 11:41:40;;;;;;;4.45;3.42;;;973.50;307.20;;;;;;5109814;28;20357;-81
2023/07/18 11:44:08;;;;;;;9.82;3.90;;;973.30;307.20;;;;;;5097794;28;20115;-82
2023/07/18 11:46:38;;;;;;;6.47;3.55;;;973.20;307.20;;;;;;5077199;28;20028;-79
2023/07/18 11:49:05;;;;;;;9.03;3.93;;;973.50;307.20;;;;;;5075982;28;20464;-80
2023/07/18 11:51:32;;;;;;;6.20;3.92;;;973.70;307.20;;;;;;5075950;28;20037;-80
2023/07/18 11:54:01;;;;;;;5.05;3.70;;;998.40;332.80;;;;;;5075630;28;20456;-80
2023/07/18 11:56:31;;;;;;;5.28;3.50;;;973.70;307.20;;;;;;5076978;28;20025;-80
2023/07/18 11:58:57;;;;;;;6.40;3.97;;;998.50;332.80;;;;;;5075861;28;20085;-80
2023/07/18 12:01:23;;;;;;;6.10;4.47;;;998.50;332.80;;;;;;5075281;28;20461;-80
2023/07/18 12:03:53;;;;;;;5.90;3.38;;;998.60;358.40;;;;;;5075792;28;20020;-80
2023/07/18 12:06:22;;;;;;;5.50;3.47;;;998.60;332.80;;;;;;5077446;28;20036;-77
2023/07/18 12:08:49;;;;;;;4.85;3.35;;;998.70;332.80;;;;;;5075523;28;20025;-79